This is the latest recevied weather packets stored in our database for station/object K4ZZR. If no packets are shown the sender has not sent any weather packets the latest 10 day(s).
| Time | Temp. | Humidity | Pressure | Rain* | Wind** | Luminosity | Snow |
|---|---|---|---|---|---|---|---|
| 1777393046 | 26.67° C | 73% | 1019.3 hPa | 0 mm | - | 988 W/m² | - |
| 1777392742 | 27.22° C | 73% | 1019.4 hPa | 0 mm | - | 933 W/m² | - |
| 1777392438 | 26.67° C | 72% | 1019.3 hPa | 0 mm | - | 949 W/m² | - |
| 1777392134 | 26.67° C | 72% | 1019.2 hPa | 0 mm | - | 940 W/m² | - |
| 1777391829 | 27.22° C | 73% | 1019.3 hPa | 0 mm | - | 170 W/m² | - |
| 1777391524 | 26.67° C | 73% | 1019.3 hPa | 0 mm | - | 910 W/m² | - |
| 1777391221 | 26.11° C | 74% | 1019.2 hPa | 0 mm | - | 557 W/m² | - |
| 1777390917 | 27.22° C | 72% | 1019 hPa | 0 mm | - | 542 W/m² | - |
| 1777390614 | 26.67° C | 74% | 1019 hPa | 0 mm | - | 387 W/m² | - |
| 1777390310 | 26.67° C | 72% | 1019.2 hPa | 0 mm | - | 543 W/m² | - |
| 1777390006 | 27.22° C | 72% | 1019.2 hPa | 0 mm | - | 426 W/m² | - |
| 1777389703 | 26.67° C | 73% | 1019.1 hPa | 0 mm | - | 845 W/m² | - |
| 1777389399 | 27.22° C | 72% | 1019.3 hPa | 0 mm | - | 426 W/m² | - |
| 1777389098 | 26.67° C | 74% | 1019.1 hPa | 0 mm | - | 380 W/m² | - |
| 1777388795 | 26.67° C | 71% | 1019.3 hPa | 0 mm | - | 705 W/m² | - |
| 1777388492 | 26.67° C | 70% | 1019.1 hPa | 0 mm | - | 804 W/m² | - |
| 1777388187 | 26.11° C | 73% | 1019.1 hPa | 0 mm | - | 793 W/m² | - |
| 1777387882 | 26.67° C | 72% | 1019.1 hPa | 0 mm | - | 468 W/m² | - |
| 1777387579 | 26.11° C | 74% | 1018.9 hPa | 0 mm | - | 204 W/m² | - |
| 1777387275 | 26.11° C | 73% | 1018.8 hPa | 0 mm | - | 134 W/m² | - |
| 1777386969 | 26.67° C | 72% | 1018.6 hPa | 0 mm | - | 551 W/m² | - |
| 1777386667 | 26.11° C | 73% | 1018.8 hPa | 0 mm | - | 711 W/m² | - |
| 1777386364 | 26.67° C | 72% | 1018.7 hPa | 0 mm | - | 687 W/m² | - |
| 1777386062 | 26.67° C | 71% | 1019 hPa | 0 mm | - | 673 W/m² | - |
| 1777385758 | 26.67° C | 72% | 1018.9 hPa | 0 mm | - | 654 W/m² | - |
* Rain latest hour (hover to see other rain measurements)
** Current wind speed in m/s (hover to see current wind gust speed)